sensor_id;sensor_type;location;lat;lon;timestamp;pressure;altitude;pressure_sealevel;temperature;humidity
27014;BME280;14556;52.222;4.510;2023-05-29T00:00:39;101705.03;;;8.82;100.00
27014;BME280;14556;52.222;4.510;2023-05-29T00:03:06;101715.03;;;8.80;100.00
27014;BME280;14556;52.222;4.510;2023-05-29T00:05:35;101720.53;;;8.79;100.00
27014;BME280;14556;52.222;4.510;2023-05-29T00:08:02;101713.84;;;8.75;100.00
27014;BME280;14556;52.222;4.510;2023-05-29T00:10:29;101714.19;;;8.72;100.00
27014;BME280;14556;52.222;4.510;2023-05-29T00:12:57;101718.69;;;8.71;100.00
27014;BME280;14556;52.222;4.510;2023-05-29T00:15:24;101710.34;;;8.66;100.00
27014;BME280;14556;52.222;4.510;2023-05-29T00:17:50;101714.53;;;8.68;100.00
27014;BME280;14556;52.222;4.510;2023-05-29T00:20:17;101712.84;;;8.67;100.00
27014;BME280;14556;52.222;4.510;2023-05-29T00:22:44;101703.34;;;8.65;100.00
27014;BME280;14556;52.222;4.510;2023-05-29T00:25:11;101714.66;;;8.67;100.00
27014;BME280;14556;52.222;4.510;2023-05-29T00:27:37;101713.84;;;8.66;100.00
27014;BME280;14556;52.222;4.510;2023-05-29T00:30:04;101712.31;;;8.55;100.00
27014;BME280;14556;52.222;4.510;2023-05-29T00:32:32;101720.31;;;8.55;100.00
27014;BME280;14556;52.222;4.510;2023-05-29T00:34:59;101727.09;;;8.50;100.00
27014;BME280;14556;52.222;4.510;2023-05-29T00:37:25;101732.94;;;8.53;100.00
27014;BME280;14556;52.222;4.510;2023-05-29T00:39:52;101726.28;;;8.49;100.00
27014;BME280;14556;52.222;4.510;2023-05-29T00:42:18;101728.44;;;8.45;100.00
27014;BME280;14556;52.222;4.510;2023-05-29T00:44:45;101728.28;;;8.47;100.00
27014;BME280;14556;52.222;4.510;2023-05-29T00:47:12;101725.09;;;8.35;100.00
27014;BME280;14556;52.222;4.510;2023-05-29T00:49:39;101722.59;;;8.33;100.00
27014;BME280;14556;52.222;4.510;2023-05-29T00:52:07;101731.22;;;8.27;100.00
27014;BME280;14556;52.222;4.510;2023-05-29T00:54:35;101729.06;;;8.31;100.00
27014;BME280;14556;52.222;4.510;2023-05-29T00:57:04;101729.41;;;8.36;100.00
27014;BME280;14556;52.222;4.510;2023-05-29T00:59:32;101741.72;;;8.29;100.00
27014;BME280;14556;52.222;4.510;2023-05-29T01:02:00;101746.56;;;8.33;100.00
27014;BME280;14556;52.222;4.510;2023-05-29T01:04:29;101744.19;;;8.22;100.00
27014;BME280;14556;52.222;4.510;2023-05-29T01:07:00;101734.53;;;8.21;100.00
27014;BME280;14556;52.222;4.510;2023-05-29T01:09:29;101740.50;;;8.23;100.00
27014;BME280;14556;52.222;4.510;2023-05-29T01:17:28;101742.69;;;8.19;100.00
27014;BME280;14556;52.222;4.510;2023-05-29T01:20:08;101751.66;;;8.18;100.00
27014;BME280;14556;52.222;4.510;2023-05-29T01:25:41;101736.00;;;8.15;100.00
27014;BME280;14556;52.222;4.510;2023-05-29T01:28:12;101737.81;;;8.15;100.00
27014;BME280;14556;52.222;4.510;2023-05-29T01:30:40;101732.97;;;8.10;100.00
27014;BME280;14556;52.222;4.510;2023-05-29T01:33:07;101743.44;;;8.03;100.00
27014;BME280;14556;52.222;4.510;2023-05-29T01:35:33;101748.94;;;8.02;100.00
27014;BME280;14556;52.222;4.510;2023-05-29T01:38:00;101744.22;;;7.95;100.00
27014;BME280;14556;52.222;4.510;2023-05-29T01:40:26;101760.56;;;8.01;100.00
27014;BME280;14556;52.222;4.510;2023-05-29T01:42:53;101759.06;;;7.98;100.00
27014;BME280;14556;52.222;4.510;2023-05-29T01:45:20;101768.72;;;7.99;100.00
27014;BME280;14556;52.222;4.510;2023-05-29T01:47:46;101760.22;;;7.95;100.00
27014;BME280;14556;52.222;4.510;2023-05-29T01:50:15;101756.22;;;7.91;100.00
27014;BME280;14556;52.222;4.510;2023-05-29T01:52:44;101743.31;;;7.78;100.00
27014;BME280;14556;52.222;4.510;2023-05-29T01:55:11;101769.00;;;7.88;100.00
27014;BME280;14556;52.222;4.510;2023-05-29T01:57:37;101760.66;;;7.82;100.00
27014;BME280;14556;52.222;4.510;2023-05-29T02:00:06;101769.69;;;7.90;100.00
27014;BME280;14556;52.222;4.510;2023-05-29T02:02:37;101775.47;;;7.85;100.00
27014;BME280;14556;52.222;4.510;2023-05-29T02:05:05;101781.81;;;7.84;100.00
27014;BME280;14556;52.222;4.510;2023-05-29T02:07:33;101779.63;;;7.79;100.00
27014;BME280;14556;52.222;4.510;2023-05-29T02:09:59;101784.94;;;7.79;100.00
27014;BME280;14556;52.222;4.510;2023-05-29T02:12:26;101788.06;;;7.74;100.00
27014;BME280;14556;52.222;4.510;2023-05-29T02:14:53;101789.88;;;7.74;100.00
27014;BME280;14556;52.222;4.510;2023-05-29T02:17:20;101779.53;;;7.71;100.00
27014;BME280;14556;52.222;4.510;2023-05-29T02:19:47;101770.75;;;7.70;100.00
27014;BME280;14556;52.222;4.510;2023-05-29T02:22:13;101766.56;;;7.68;100.00
27014;BME280;14556;52.222;4.510;2023-05-29T02:24:40;101761.22;;;7.68;100.00
27014;BME280;14556;52.222;4.510;2023-05-29T02:27:06;101770.38;;;7.65;100.00
27014;BME280;14556;52.222;4.510;2023-05-29T02:29:33;101768.00;;;7.62;100.00
27014;BME280;14556;52.222;4.510;2023-05-29T02:31:59;101759.03;;;7.63;100.00
27014;BME280;14556;52.222;4.510;2023-05-29T02:34:26;101756.00;;;7.58;100.00
27014;BME280;14556;52.222;4.510;2023-05-29T02:36:53;101769.53;;;7.65;100.00
27014;BME280;14556;52.222;4.510;2023-05-29T02:39:20;101769.00;;;7.61;100.00
27014;BME280;14556;52.222;4.510;2023-05-29T02:41:47;101791.00;;;7.63;100.00
27014;BME280;14556;52.222;4.510;2023-05-29T02:44:13;101790.63;;;7.58;100.00
27014;BME280;14556;52.222;4.510;2023-05-29T02:46:40;101774.56;;;7.49;100.00
27014;BME280;14556;52.222;4.510;2023-05-29T02:49:07;101771.63;;;7.53;100.00
27014;BME280;14556;52.222;4.510;2023-05-29T02:51:33;101763.41;;;7.46;100.00
27014;BME280;14556;52.222;4.510;2023-05-29T02:54:00;101768.75;;;7.46;100.00
27014;BME280;14556;52.222;4.510;2023-05-29T02:56:26;101780.72;;;7.50;100.00
27014;BME280;14556;52.222;4.510;2023-05-29T02:58:53;101784.41;;;7.49;100.00
27014;BME280;14556;52.222;4.510;2023-05-29T03:01:20;101776.03;;;7.44;100.00
27014;BME280;14556;52.222;4.510;2023-05-29T03:03:47;101775.28;;;7.33;100.00
27014;BME280;14556;52.222;4.510;2023-05-29T03:06:13;101783.66;;;7.38;100.00
27014;BME280;14556;52.222;4.510;2023-05-29T03:08:40;101778.78;;;7.34;100.00
27014;BME280;14556;52.222;4.510;2023-05-29T03:11:07;101777.66;;;7.36;100.00
27014;BME280;14556;52.222;4.510;2023-05-29T03:13:37;101772.78;;;7.32;100.00
27014;BME280;14556;52.222;4.510;2023-05-29T03:16:04;101776.13;;;7.34;100.00
27014;BME280;14556;52.222;4.510;2023-05-29T03:18:31;101771.72;;;7.24;100.00
27014;BME280;14556;52.222;4.510;2023-05-29T03:20:57;101781.44;;;7.34;100.00
27014;BME280;14556;52.222;4.510;2023-05-29T03:23:25;101766.41;;;7.24;100.00
27014;BME280;14556;52.222;4.510;2023-05-29T03:25:53;101772.09;;;7.30;100.00
27014;BME280;14556;52.222;4.510;2023-05-29T03:28:19;101769.22;;;7.23;100.00
27014;BME280;14556;52.222;4.510;2023-05-29T03:30:46;101771.88;;;7.23;100.00
27014;BME280;14556;52.222;4.510;2023-05-29T03:33:12;101762.69;;;7.17;100.00
27014;BME280;14556;52.222;4.510;2023-05-29T03:35:39;101761.03;;;7.16;100.00
27014;BME280;14556;52.222;4.510;2023-05-29T03:38:07;101775.53;;;7.22;100.00
27014;BME280;14556;52.222;4.510;2023-05-29T03:40:33;101786.31;;;7.20;100.00
27014;BME280;14556;52.222;4.510;2023-05-29T03:43:00;101781.16;;;7.19;100.00
27014;BME280;14556;52.222;4.510;2023-05-29T03:45:26;101784.81;;;7.18;100.00
27014;BME280;14556;52.222;4.510;2023-05-29T03:47:53;101786.16;;;7.22;100.00
27014;BME280;14556;52.222;4.510;2023-05-29T03:50:19;101786.53;;;7.27;100.00
27014;BME280;14556;52.222;4.510;2023-05-29T03:52:46;101774.16;;;7.18;100.00
27014;BME280;14556;52.222;4.510;2023-05-29T03:55:12;101781.69;;;7.22;100.00
27014;BME280;14556;52.222;4.510;2023-05-29T03:57:41;101780.84;;;7.22;100.00
27014;BME280;14556;52.222;4.510;2023-05-29T04:00:09;101785.19;;;7.23;100.00
27014;BME280;14556;52.222;4.510;2023-05-29T04:02:39;101778.50;;;7.19;100.00
27014;BME280;14556;52.222;4.510;2023-05-29T04:05:06;101787.00;;;7.22;100.00
27014;BME280;14556;52.222;4.510;2023-05-29T04:07:33;101793.19;;;7.23;100.00
27014;BME280;14556;52.222;4.510;2023-05-29T04:10:00;101801.16;;;7.23;100.00
27014;BME280;14556;52.222;4.510;2023-05-29T04:12:26;101784.50;;;7.21;100.00
27014;BME280;14556;52.222;4.510;2023-05-29T04:14:53;101795.22;;;7.29;100.00
27014;BME280;14556;52.222;4.510;2023-05-29T04:17:19;101787.75;;;7.33;100.00
27014;BME280;14556;52.222;4.510;2023-05-29T04:19:46;101780.63;;;7.33;100.00
27014;BME280;14556;52.222;4.510;2023-05-29T04:22:13;101790.09;;;7.36;100.00
27014;BME280;14556;52.222;4.510;2023-05-29T04:24:40;101791.78;;;7.37;100.00
27014;BME280;14556;52.222;4.510;2023-05-29T04:27:08;101778.13;;;7.32;100.00
27014;BME280;14556;52.222;4.510;2023-05-29T04:29:37;101784.25;;;7.32;100.00
27014;BME280;14556;52.222;4.510;2023-05-29T04:32:06;101797.94;;;7.37;100.00
27014;BME280;14556;52.222;4.510;2023-05-29T04:34:34;101796.66;;;7.42;100.00
27014;BME280;14556;52.222;4.510;2023-05-29T04:37:04;101801.19;;;7.49;100.00
27014;BME280;14556;52.222;4.510;2023-05-29T04:39:31;101805.00;;;7.47;100.00
27014;BME280;14556;52.222;4.510;2023-05-29T04:41:58;101811.72;;;7.51;100.00
27014;BME280;14556;52.222;4.510;2023-05-29T04:44:27;101814.06;;;7.54;100.00
27014;BME280;14556;52.222;4.510;2023-05-29T04:46:55;101805.06;;;7.55;100.00
27014;BME280;14556;52.222;4.510;2023-05-29T04:49:24;101823.47;;;7.67;100.00
27014;BME280;14556;52.222;4.510;2023-05-29T04:51:50;101805.00;;;7.65;100.00
27014;BME280;14556;52.222;4.510;2023-05-29T04:54:22;101808.31;;;7.67;100.00
27014;BME280;14556;52.222;4.510;2023-05-29T04:56:48;101817.38;;;7.74;100.00
27014;BME280;14556;52.222;4.510;2023-05-29T04:59:15;101822.25;;;7.79;100.00
27014;BME280;14556;52.222;4.510;2023-05-29T05:01:41;101823.59;;;7.83;100.00
27014;BME280;14556;52.222;4.510;2023-05-29T05:04:09;101815.59;;;7.83;100.00
27014;BME280;14556;52.222;4.510;2023-05-29T05:06:36;101813.63;;;7.85;100.00
27014;BME280;14556;52.222;4.510;2023-05-29T05:09:04;101809.78;;;7.88;100.00
27014;BME280;14556;52.222;4.510;2023-05-29T05:11:31;101820.34;;;7.98;100.00
27014;BME280;14556;52.222;4.510;2023-05-29T05:13:57;101810.06;;;8.03;100.00
27014;BME280;14556;52.222;4.510;2023-05-29T05:16:24;101813.41;;;8.05;100.00
27014;BME280;14556;52.222;4.510;2023-05-29T05:18:50;101807.44;;;8.12;100.00
27014;BME280;14556;52.222;4.510;2023-05-29T05:21:17;101814.13;;;8.16;100.00
27014;BME280;14556;52.222;4.510;2023-05-29T05:23:43;101808.81;;;8.16;100.00
27014;BME280;14556;52.222;4.510;2023-05-29T05:26:24;101797.13;;;8.17;100.00
27014;BME280;14556;52.222;4.510;2023-05-29T05:28:52;101798.53;;;8.29;100.00
27014;BME280;14556;52.222;4.510;2023-05-29T05:31:19;101810.22;;;8.37;100.00
27014;BME280;14556;52.222;4.510;2023-05-29T05:33:45;101808.09;;;8.40;100.00
27014;BME280;14556;52.222;4.510;2023-05-29T05:36:12;101811.56;;;8.41;100.00
27014;BME280;14556;52.222;4.510;2023-05-29T05:38:38;101811.88;;;8.38;100.00
27014;BME280;14556;52.222;4.510;2023-05-29T05:41:05;101814.59;;;8.46;100.00
27014;BME280;14556;52.222;4.510;2023-05-29T05:43:32;101820.78;;;8.55;100.00
27014;BME280;14556;52.222;4.510;2023-05-29T05:45:58;101820.03;;;8.63;100.00
27014;BME280;14556;52.222;4.510;2023-05-29T05:48:25;101814.50;;;8.56;100.00
27014;BME280;14556;52.222;4.510;2023-05-29T05:50:52;101806.13;;;8.51;100.00
27014;BME280;14556;52.222;4.510;2023-05-29T05:53:19;101812.03;;;8.63;100.00
27014;BME280;14556;52.222;4.510;2023-05-29T05:55:47;101818.25;;;8.80;100.00
27014;BME280;14556;52.222;4.510;2023-05-29T05:58:13;101824.28;;;8.90;100.00
27014;BME280;14556;52.222;4.510;2023-05-29T06:00:40;101809.75;;;8.85;100.00
27014;BME280;14556;52.222;4.510;2023-05-29T06:03:08;101817.28;;;8.98;100.00
27014;BME280;14556;52.222;4.510;2023-05-29T06:05:35;101825.28;;;8.98;100.00
27014;BME280;14556;52.222;4.510;2023-05-29T06:08:04;101826.78;;;9.00;100.00
27014;BME280;14556;52.222;4.510;2023-05-29T06:10:32;101825.66;;;9.11;100.00
27014;BME280;14556;52.222;4.510;2023-05-29T06:12:58;101826.16;;;9.15;100.00
27014;BME280;14556;52.222;4.510;2023-05-29T06:15:25;101826.66;;;9.18;100.00
27014;BME280;14556;52.222;4.510;2023-05-29T06:17:51;101832.16;;;9.25;100.00
27014;BME280;14556;52.222;4.510;2023-05-29T06:20:19;101824.31;;;9.32;100.00
27014;BME280;14556;52.222;4.510;2023-05-29T06:22:46;101818.50;;;9.37;100.00
27014;BME280;14556;52.222;4.510;2023-05-29T06:25:16;101819.50;;;9.52;100.00
27014;BME280;14556;52.222;4.510;2023-05-29T06:27:44;101823.81;;;9.62;100.00
27014;BME280;14556;52.222;4.510;2023-05-29T06:30:12;101821.16;;;9.70;100.00
27014;BME280;14556;52.222;4.510;2023-05-29T06:32:39;101824.63;;;9.79;100.00
27014;BME280;14556;52.222;4.510;2023-05-29T06:35:07;101834.81;;;10.00;100.00
27014;BME280;14556;52.222;4.510;2023-05-29T06:37:34;101817.94;;;10.00;100.00
27014;BME280;14556;52.222;4.510;2023-05-29T06:40:01;101828.81;;;9.90;100.00
27014;BME280;14556;52.222;4.510;2023-05-29T06:42:28;101809.31;;;9.73;100.00
27014;BME280;14556;52.222;4.510;2023-05-29T06:44:54;101803.81;;;9.66;100.00
27014;BME280;14556;52.222;4.510;2023-05-29T06:47:21;101830.00;;;9.87;100.00
27014;BME280;14556;52.222;4.510;2023-05-29T06:49:48;101836.16;;;9.88;100.00
27014;BME280;14556;52.222;4.510;2023-05-29T06:52:14;101831.31;;;9.91;100.00
27014;BME280;14556;52.222;4.510;2023-05-29T06:54:41;101834.00;;;10.00;100.00
27014;BME280;14556;52.222;4.510;2023-05-29T06:57:08;101822.63;;;9.89;100.00
27014;BME280;14556;52.222;4.510;2023-05-29T06:59:37;101835.47;;;10.02;100.00
27014;BME280;14556;52.222;4.510;2023-05-29T07:02:04;101827.94;;;10.06;100.00
27014;BME280;14556;52.222;4.510;2023-05-29T07:04:32;101831.06;;;10.26;100.00
27014;BME280;14556;52.222;4.510;2023-05-29T07:06:58;101840.06;;;10.34;100.00
27014;BME280;14556;52.222;4.510;2023-05-29T07:09:24;101836.19;;;10.45;100.00
27014;BME280;14556;52.222;4.510;2023-05-29T07:11:51;101843.97;;;10.63;100.00
27014;BME280;14556;52.222;4.510;2023-05-29T07:14:18;101826.88;;;10.72;100.00
27014;BME280;14556;52.222;4.510;2023-05-29T07:16:45;101844.28;;;10.76;100.00
27014;BME280;14556;52.222;4.510;2023-05-29T07:19:11;101841.22;;;10.48;100.00
27014;BME280;14556;52.222;4.510;2023-05-29T07:21:47;101849.41;;;10.38;100.00
27014;BME280;14556;52.222;4.510;2023-05-29T07:24:13;101848.41;;;10.47;100.00
27014;BME280;14556;52.222;4.510;2023-05-29T07:26:40;101854.84;;;10.70;100.00
27014;BME280;14556;52.222;4.510;2023-05-29T07:29:07;101848.59;;;10.78;100.00
27014;BME280;14556;52.222;4.510;2023-05-29T07:31:34;101848.34;;;10.64;100.00
27014;BME280;14556;52.222;4.510;2023-05-29T07:34:00;101849.34;;;10.63;100.00
27014;BME280;14556;52.222;4.510;2023-05-29T07:36:29;101855.03;;;10.68;100.00
27014;BME280;14556;52.222;4.510;2023-05-29T07:38:57;101856.41;;;10.56;100.00
27014;BME280;14556;52.222;4.510;2023-05-29T07:41:26;101854.72;;;10.46;100.00
27014;BME280;14556;52.222;4.510;2023-05-29T07:43:53;101858.69;;;10.67;100.00
27014;BME280;14556;52.222;4.510;2023-05-29T07:46:22;101865.28;;;10.88;100.00
27014;BME280;14556;52.222;4.510;2023-05-29T07:48:49;101842.47;;;11.00;100.00
27014;BME280;14556;52.222;4.510;2023-05-29T07:51:15;101846.16;;;11.23;100.00
27014;BME280;14556;52.222;4.510;2023-05-29T07:53:46;101857.78;;;11.15;100.00
27014;BME280;14556;52.222;4.510;2023-05-29T07:56:13;101853.13;;;11.09;100.00
27014;BME280;14556;52.222;4.510;2023-05-29T07:58:39;101851.47;;;11.08;100.00
27014;BME280;14556;52.222;4.510;2023-05-29T08:01:07;101864.44;;;11.19;100.00
27014;BME280;14556;52.222;4.510;2023-05-29T08:03:35;101864.16;;;11.38;100.00
27014;BME280;14556;52.222;4.510;2023-05-29T08:06:02;101843.47;;;11.23;100.00
27014;BME280;14556;52.222;4.510;2023-05-29T08:08:29;101864.56;;;11.49;100.00
27014;BME280;14556;52.222;4.510;2023-05-29T08:10:56;101861.19;;;11.71;100.00
27014;BME280;14556;52.222;4.510;2023-05-29T08:13:23;101856.97;;;11.77;100.00
27014;BME280;14556;52.222;4.510;2023-05-29T08:15:50;101855.38;;;11.67;100.00
27014;BME280;14556;52.222;4.510;2023-05-29T08:18:17;101862.34;;;11.53;100.00
27014;BME280;14556;52.222;4.510;2023-05-29T08:20:43;101860.91;;;11.42;100.00
27014;BME280;14556;52.222;4.510;2023-05-29T08:23:11;101870.97;;;11.64;100.00
27014;BME280;14556;52.222;4.510;2023-05-29T08:25:37;101864.97;;;11.61;100.00
27014;BME280;14556;52.222;4.510;2023-05-29T08:28:04;101871.25;;;11.69;100.00
27014;BME280;14556;52.222;4.510;2023-05-29T08:30:30;101864.59;;;11.65;100.00
27014;BME280;14556;52.222;4.510;2023-05-29T08:32:57;101867.63;;;11.85;100.00
27014;BME280;14556;52.222;4.510;2023-05-29T08:35:24;101868.47;;;12.01;99.14
27014;BME280;14556;52.222;4.510;2023-05-29T08:37:50;101877.03;;;11.81;100.00
27014;BME280;14556;52.222;4.510;2023-05-29T08:40:17;101865.13;;;11.83;100.00
27014;BME280;14556;52.222;4.510;2023-05-29T08:43:12;101865.03;;;12.07;99.65
27014;BME280;14556;52.222;4.510;2023-05-29T08:45:42;101871.59;;;11.89;100.00
27014;BME280;14556;52.222;4.510;2023-05-29T08:48:10;101875.19;;;11.96;100.00
27014;BME280;14556;52.222;4.510;2023-05-29T08:50:43;101883.22;;;12.35;100.00
27014;BME280;14556;52.222;4.510;2023-05-29T08:53:13;101872.41;;;12.28;100.00
27014;BME280;14556;52.222;4.510;2023-05-29T08:55:40;101864.16;;;12.30;100.00
27014;BME280;14556;52.222;4.510;2023-05-29T08:58:07;101865.03;;;12.07;100.00
27014;BME280;14556;52.222;4.510;2023-05-29T09:00:35;101870.41;;;12.07;100.00
27014;BME280;14556;52.222;4.510;2023-05-29T09:03:02;101855.72;;;12.03;100.00
27014;BME280;14556;52.222;4.510;2023-05-29T09:05:29;101869.66;;;11.98;100.00
27014;BME280;14556;52.222;4.510;2023-05-29T09:07:56;101866.56;;;12.09;100.00
27014;BME280;14556;52.222;4.510;2023-05-29T09:10:23;101874.53;;;12.33;100.00
27014;BME280;14556;52.222;4.510;2023-05-29T09:12:52;101873.22;;;12.44;100.00
27014;BME280;14556;52.222;4.510;2023-05-29T09:15:22;101869.25;;;12.55;100.00
27014;BME280;14556;52.222;4.510;2023-05-29T09:17:54;101867.19;;;12.72;100.00
27014;BME280;14556;52.222;4.510;2023-05-29T09:20:21;101866.28;;;12.50;100.00
27014;BME280;14556;52.222;4.510;2023-05-29T09:25:23;101872.09;;;12.68;100.00
27014;BME280;14556;52.222;4.510;2023-05-29T09:27:58;101874.91;;;12.97;100.00
27014;BME280;14556;52.222;4.510;2023-05-29T09:30:45;101874.50;;;13.37;99.88
27014;BME280;14556;52.222;4.510;2023-05-29T09:33:14;101856.91;;;13.35;91.21
27014;BME280;14556;52.222;4.510;2023-05-29T09:35:42;101866.84;;;13.34;91.86
27014;BME280;14556;52.222;4.510;2023-05-29T09:38:12;101862.31;;;13.41;88.68
27014;BME280;14556;52.222;4.510;2023-05-29T09:41:03;101860.56;;;13.27;91.44
27014;BME280;14556;52.222;4.510;2023-05-29T09:43:31;101856.38;;;13.24;96.53
27014;BME280;14556;52.222;4.510;2023-05-29T09:46:00;101869.25;;;13.51;96.45
27014;BME280;14556;52.222;4.510;2023-05-29T09:48:29;101854.41;;;13.33;89.16
27014;BME280;14556;52.222;4.510;2023-05-29T09:50:56;101845.38;;;13.19;94.58
27014;BME280;14556;52.222;4.510;2023-05-29T09:53:27;101860.44;;;13.57;90.88
27014;BME280;14556;52.222;4.510;2023-05-29T09:55:56;101856.06;;;13.78;88.94
27014;BME280;14556;52.222;4.510;2023-05-29T09:58:24;101850.28;;;13.81;87.52
27014;BME280;14556;52.222;4.510;2023-05-29T10:00:52;101850.75;;;13.85;80.48
27014;BME280;14556;52.222;4.510;2023-05-29T10:03:20;101853.19;;;13.80;82.95
27014;BME280;14556;52.222;4.510;2023-05-29T10:05:54;101822.44;;;13.60;84.80
27014;BME280;14556;52.222;4.510;2023-05-29T10:08:31;101845.41;;;13.92;90.88
27014;BME280;14556;52.222;4.510;2023-05-29T10:11:01;101832.44;;;14.02;80.98
27014;BME280;14556;52.222;4.510;2023-05-29T10:13:32;101840.16;;;14.19;79.68
27014;BME280;14556;52.222;4.510;2023-05-29T10:16:03;101834.41;;;14.22;69.70
27014;BME280;14556;52.222;4.510;2023-05-29T10:18:37;101835.09;;;13.95;68.97
27014;BME280;14556;52.222;4.510;2023-05-29T10:21:04;101832.69;;;13.78;68.31
27014;BME280;14556;52.222;4.510;2023-05-29T10:23:36;101841.03;;;13.90;72.78
27014;BME280;14556;52.222;4.510;2023-05-29T10:26:21;101850.72;;;14.56;72.77
27014;BME280;14556;52.222;4.510;2023-05-29T10:29:01;101844.34;;;14.21;69.73
27014;BME280;14556;52.222;4.510;2023-05-29T10:31:43;101843.00;;;14.04;67.80
27014;BME280;14556;52.222;4.510;2023-05-29T10:37:34;101845.25;;;13.71;66.77
27014;BME280;14556;52.222;4.510;2023-05-29T10:40:07;101834.16;;;13.81;68.20
27014;BME280;14556;52.222;4.510;2023-05-29T10:45:04;101830.84;;;14.14;72.89
27014;BME280;14556;52.222;4.510;2023-05-29T10:47:31;101832.66;;;14.07;70.54
27014;BME280;14556;52.222;4.510;2023-05-29T10:49:59;101832.97;;;14.26;68.75
27014;BME280;14556;52.222;4.510;2023-05-29T10:52:34;101833.03;;;14.39;66.38
27014;BME280;14556;52.222;4.510;2023-05-29T10:55:02;101835.06;;;14.31;68.78
27014;BME280;14556;52.222;4.510;2023-05-29T10:57:33;101847.09;;;14.35;70.49
27014;BME280;14556;52.222;4.510;2023-05-29T11:00:06;101838.03;;;14.43;68.71
27014;BME280;14556;52.222;4.510;2023-05-29T11:02:40;101839.34;;;14.60;71.63
27014;BME280;14556;52.222;4.510;2023-05-29T11:05:19;101829.53;;;14.39;68.30
27014;BME280;14556;52.222;4.510;2023-05-29T11:07:57;101817.41;;;14.14;67.77
27014;BME280;14556;52.222;4.510;2023-05-29T11:11:00;101823.09;;;13.98;69.29
27014;BME280;14556;52.222;4.510;2023-05-29T11:13:34;101819.66;;;14.11;71.93
27014;BME280;14556;52.222;4.510;2023-05-29T11:16:11;101813.66;;;14.58;66.91
27014;BME280;14556;52.222;4.510;2023-05-29T11:18:46;101812.25;;;14.75;64.81
27014;BME280;14556;52.222;4.510;2023-05-29T11:21:44;101827.38;;;14.27;66.98
27014;BME280;14556;52.222;4.510;2023-05-29T11:24:23;101820.63;;;14.38;67.72
27014;BME280;14556;52.222;4.510;2023-05-29T11:26:56;101826.44;;;14.98;67.84
27014;BME280;14556;52.222;4.510;2023-05-29T11:29:25;101812.53;;;15.01;65.06
27014;BME280;14556;52.222;4.510;2023-05-29T11:32:03;101823.91;;;14.83;63.10
27014;BME280;14556;52.222;4.510;2023-05-29T11:34:30;101830.28;;;14.75;64.01
27014;BME280;14556;52.222;4.510;2023-05-29T11:37:01;101831.28;;;14.60;62.96
27014;BME280;14556;52.222;4.510;2023-05-29T11:39:29;101815.72;;;14.62;61.63
27014;BME280;14556;52.222;4.510;2023-05-29T11:41:57;101827.56;;;14.75;62.27
27014;BME280;14556;52.222;4.510;2023-05-29T11:44:24;101818.88;;;14.80;62.84
27014;BME280;14556;52.222;4.510;2023-05-29T11:47:04;101834.50;;;14.98;64.61
27014;BME280;14556;52.222;4.510;2023-05-29T11:49:32;101828.72;;;15.01;64.90
27014;BME280;14556;52.222;4.510;2023-05-29T11:52:10;101829.75;;;15.14;64.51
27014;BME280;14556;52.222;4.510;2023-05-29T11:54:40;101830.13;;;14.83;66.02
27014;BME280;14556;52.222;4.510;2023-05-29T11:57:21;101828.47;;;14.82;64.76
27014;BME280;14556;52.222;4.510;2023-05-29T11:59:51;101836.34;;;14.91;67.19
27014;BME280;14556;52.222;4.510;2023-05-29T12:02:25;101822.88;;;14.84;63.95
27014;BME280;14556;52.222;4.510;2023-05-29T12:05:04;101830.38;;;14.95;64.42
27014;BME280;14556;52.222;4.510;2023-05-29T12:07:31;101833.31;;;14.52;64.75
27014;BME280;14556;52.222;4.510;2023-05-29T12:10:11;101834.56;;;14.62;64.59
27014;BME280;14556;52.222;4.510;2023-05-29T12:12:38;101839.50;;;14.52;67.62
27014;BME280;14556;52.222;4.510;2023-05-29T12:15:07;101831.66;;;14.57;69.29
27014;BME280;14556;52.222;4.510;2023-05-29T12:17:35;101839.91;;;14.49;69.54
27014;BME280;14556;52.222;4.510;2023-05-29T12:20:03;101844.31;;;14.57;71.99
27014;BME280;14556;52.222;4.510;2023-05-29T12:22:34;101844.66;;;14.47;71.31
27014;BME280;14556;52.222;4.510;2023-05-29T12:25:11;101839.50;;;14.52;73.57
27014;BME280;14556;52.222;4.510;2023-05-29T12:27:42;101838.25;;;14.48;74.60
27014;BME280;14556;52.222;4.510;2023-05-29T12:30:10;101841.53;;;14.43;72.92
27014;BME280;14556;52.222;4.510;2023-05-29T12:32:51;101824.66;;;14.21;73.10
27014;BME280;14556;52.222;4.510;2023-05-29T12:35:23;101816.06;;;14.39;74.77
27014;BME280;14556;52.222;4.510;2023-05-29T12:40:24;101840.88;;;14.34;70.51
27014;BME280;14556;52.222;4.510;2023-05-29T12:42:56;101829.22;;;14.20;68.35
27014;BME280;14556;52.222;4.510;2023-05-29T12:45:28;101830.88;;;14.21;70.13
27014;BME280;14556;52.222;4.510;2023-05-29T12:48:01;101842.06;;;14.18;74.47
27014;BME280;14556;52.222;4.510;2023-05-29T12:50:33;101827.38;;;14.27;78.73
27014;BME280;14556;52.222;4.510;2023-05-29T12:53:05;101832.47;;;14.51;71.94
27014;BME280;14556;52.222;4.510;2023-05-29T12:55:37;101827.34;;;14.63;72.12
27014;BME280;14556;52.222;4.510;2023-05-29T12:58:06;101833.09;;;14.46;78.16
27014;BME280;14556;52.222;4.510;2023-05-29T13:00:34;101832.66;;;14.43;71.50
27014;BME280;14556;52.222;4.510;2023-05-29T13:03:01;101817.66;;;14.26;70.50
27014;BME280;14556;52.222;4.510;2023-05-29T13:05:28;101831.34;;;14.32;74.57
27014;BME280;14556;52.222;4.510;2023-05-29T13:07:55;101835.56;;;14.48;71.08
27014;BME280;14556;52.222;4.510;2023-05-29T13:10:21;101841.84;;;14.62;68.60
27014;BME280;14556;52.222;4.510;2023-05-29T13:12:49;101836.28;;;14.77;68.35
27014;BME280;14556;52.222;4.510;2023-05-29T13:15:22;101833.00;;;14.82;68.49